createdAt,value
2019-04-01T00:00:15.531Z,91.60
2019-04-01T00:02:44.001Z,91.60
2019-04-01T00:05:12.775Z,91.60
2019-04-01T00:07:41.359Z,91.80
2019-04-01T00:10:10.174Z,91.90
2019-04-01T00:12:38.707Z,92.20
2019-04-01T00:15:07.906Z,92.10
2019-04-01T00:17:36.473Z,92.20
2019-04-01T00:20:06.474Z,92.30
2019-04-01T00:22:34.991Z,92.40
2019-04-01T00:25:03.529Z,92.50
2019-04-01T00:27:31.990Z,92.50
2019-04-01T00:30:00.498Z,92.60
2019-04-01T00:32:29.056Z,92.50
2019-04-01T00:34:57.594Z,92.40
2019-04-01T00:37:26.219Z,92.60
2019-04-01T00:39:54.763Z,92.70
2019-04-01T00:42:27.603Z,92.70
2019-04-01T00:44:56.091Z,92.80
2019-04-01T00:47:24.587Z,92.90
2019-04-01T00:49:53.079Z,92.90
2019-04-01T00:52:21.550Z,93.10
2019-04-01T00:54:50.110Z,93.10
2019-04-01T00:57:18.575Z,93.30
2019-04-01T00:59:47.086Z,93.30
2019-04-01T01:02:15.714Z,93.10
2019-04-01T01:04:44.182Z,93.10
2019-04-01T01:07:12.767Z,93.00
2019-04-01T01:09:41.310Z,93.00
2019-04-01T01:12:09.886Z,93.30
2019-04-01T01:14:38.358Z,93.30
2019-04-01T01:17:06.919Z,93.40
2019-04-01T01:19:35.480Z,93.30
2019-04-01T01:22:04.138Z,93.40
2019-04-01T01:24:32.786Z,93.50
2019-04-01T01:27:01.346Z,93.60
2019-04-01T01:29:29.831Z,93.60
2019-04-01T01:31:58.322Z,93.50
2019-04-01T01:34:26.790Z,93.70
2019-04-01T01:36:55.258Z,93.80
2019-04-01T01:39:23.815Z,93.70
2019-04-01T01:41:52.282Z,93.70
2019-04-01T01:44:20.842Z,93.70
2019-04-01T01:46:49.303Z,94.10
2019-04-01T01:49:17.794Z,93.70
2019-04-01T01:51:46.262Z,93.70
2019-04-01T01:54:14.830Z,93.80
2019-04-01T01:56:43.363Z,94.10
2019-04-01T01:59:11.826Z,94.10
2019-04-01T02:01:40.323Z,94.50
2019-04-01T02:04:08.783Z,94.30
2019-04-01T02:06:37.251Z,94.30
2019-04-01T02:09:06.479Z,94.30
2019-04-01T02:11:34.966Z,94.10
2019-04-01T02:14:03.498Z,94.10
2019-04-01T02:16:32.091Z,94.40
2019-04-01T02:19:00.554Z,94.00
2019-04-01T02:21:29.122Z,94.00
2019-04-01T02:23:57.586Z,93.90
2019-04-01T02:26:26.060Z,93.70
2019-04-01T02:28:54.543Z,93.90
2019-04-01T02:31:23.009Z,93.80
2019-04-01T02:33:51.560Z,93.90
2019-04-01T02:36:20.116Z,93.90
2019-04-01T02:38:48.657Z,94.10
2019-04-01T02:41:17.205Z,94.30
2019-04-01T02:43:45.772Z,94.50
2019-04-01T02:46:14.346Z,94.70
2019-04-01T02:48:43.049Z,94.70
2019-04-01T02:51:11.816Z,94.70
2019-04-01T02:53:40.346Z,94.60
2019-04-01T02:56:08.837Z,94.60
2019-04-01T02:58:37.376Z,94.70
2019-04-01T03:01:06.007Z,95.10
2019-04-01T03:03:34.552Z,95.40
2019-04-01T03:06:03.073Z,95.80
2019-04-01T03:08:31.683Z,96.00
2019-04-01T03:11:00.200Z,96.00
2019-04-01T03:13:28.755Z,96.10
2019-04-01T03:15:57.342Z,95.80
2019-04-01T03:18:26.018Z,95.50
2019-04-01T03:20:54.562Z,95.40
2019-04-01T03:23:23.100Z,95.30
2019-04-01T03:25:51.663Z,95.30
2019-04-01T03:28:20.227Z,95.20
2019-04-01T03:30:48.838Z,95.20
2019-04-01T03:33:17.378Z,95.20
2019-04-01T03:35:45.934Z,95.30
2019-04-01T03:38:14.399Z,95.30
2019-04-01T03:40:42.891Z,95.30
2019-04-01T03:43:11.439Z,95.50
2019-04-01T03:45:39.927Z,95.50
2019-04-01T03:48:08.548Z,95.30
2019-04-01T03:50:37.170Z,95.10
2019-04-01T03:53:06.164Z,94.90
2019-04-01T03:55:34.943Z,94.90
2019-04-01T03:58:03.422Z,95.20
2019-04-01T04:00:32.126Z,94.90
2019-04-01T04:03:00.861Z,94.90
2019-04-01T04:05:29.402Z,94.90
2019-04-01T04:07:57.985Z,95.00
2019-04-01T04:10:26.522Z,95.20
2019-04-01T04:12:55.152Z,95.30
2019-04-01T04:15:23.690Z,95.20
2019-04-01T04:17:52.328Z,95.00
2019-04-01T04:20:20.934Z,94.80
2019-04-01T04:22:49.503Z,94.70
2019-04-01T04:25:18.119Z,94.70
2019-04-01T04:27:46.773Z,94.50
2019-04-01T04:30:19.960Z,94.30
2019-04-01T04:32:48.585Z,94.40
2019-04-01T04:35:17.231Z,94.40
2019-04-01T04:37:45.830Z,94.20
2019-04-01T04:40:14.961Z,94.30
2019-04-01T04:42:43.498Z,94.40
2019-04-01T04:45:12.234Z,94.40
2019-04-01T04:47:40.847Z,94.20
2019-04-01T04:50:09.585Z,94.10
2019-04-01T04:52:38.145Z,93.80
2019-04-01T04:55:06.947Z,93.70
2019-04-01T04:57:35.564Z,93.90
2019-04-01T05:00:06.259Z,94.10
2019-04-01T05:02:34.769Z,94.10
2019-04-01T05:05:04.240Z,94.10
2019-04-01T05:07:32.783Z,94.00
2019-04-01T05:10:01.284Z,93.90
2019-04-01T05:12:29.743Z,94.20
2019-04-01T05:14:58.243Z,94.00
2019-04-01T05:17:26.875Z,94.00
2019-04-01T05:19:55.330Z,93.80
2019-04-01T05:22:24.761Z,93.70
2019-04-01T05:24:53.595Z,93.50
2019-04-01T05:27:25.471Z,93.30
2019-04-01T05:29:54.797Z,93.30
2019-04-01T05:32:24.876Z,93.20
2019-04-01T05:34:55.894Z,93.10
2019-04-01T05:37:24.428Z,93.00
2019-04-01T05:39:53.662Z,92.50
2019-04-01T05:42:41.634Z,92.60
2019-04-01T05:45:10.291Z,92.50
2019-04-01T05:47:52.599Z,92.20
2019-04-01T05:50:21.223Z,91.80
2019-04-01T05:52:49.923Z,91.10
2019-04-01T05:55:18.479Z,90.80
2019-04-01T05:57:47.039Z,90.40
2019-04-01T06:00:21.468Z,89.30
2019-04-01T06:02:50.246Z,88.40
2019-04-01T06:05:18.990Z,88.00
2019-04-01T06:07:47.711Z,86.70
2019-04-01T06:10:16.315Z,85.60
2019-04-01T06:12:44.807Z,84.30
2019-04-01T06:15:13.583Z,82.30
2019-04-01T06:17:42.041Z,82.30
2019-04-01T06:20:10.592Z,81.60
2019-04-01T06:22:39.352Z,81.00
2019-04-01T06:25:08.408Z,80.30
2019-04-01T06:27:37.050Z,79.00
2019-04-01T06:30:08.582Z,77.90
2019-04-01T06:32:37.046Z,75.10
2019-04-01T06:35:06.645Z,73.10
2019-04-01T06:37:35.138Z,72.50
2019-04-01T06:40:05.742Z,71.40
2019-04-01T06:42:34.372Z,69.60
2019-04-01T06:45:02.925Z,67.90
2019-04-01T06:47:31.487Z,65.80
2019-04-01T06:50:00.018Z,63.80
2019-04-01T06:52:28.583Z,62.90
2019-04-01T06:54:57.142Z,63.00
2019-04-01T06:57:26.088Z,62.50
2019-04-01T06:59:54.650Z,63.10
2019-04-01T07:02:23.143Z,62.00
2019-04-01T07:04:52.052Z,60.00
2019-04-01T07:07:20.606Z,60.10
2019-04-01T07:09:50.814Z,60.30
2019-04-01T07:12:19.606Z,58.90
2019-04-01T07:14:48.537Z,55.90
2019-04-01T07:17:17.086Z,52.00
2019-04-01T07:19:45.575Z,49.70
2019-04-01T07:22:14.403Z,48.40
2019-04-01T07:24:43.015Z,45.60
2019-04-01T07:27:11.601Z,44.40
2019-04-01T07:29:40.394Z,43.20
2019-04-01T07:32:08.928Z,41.80
2019-04-01T07:34:37.489Z,40.80
2019-04-01T07:37:06.311Z,40.50
2019-04-01T07:39:34.995Z,39.50
2019-04-01T07:42:03.530Z,37.70
2019-04-01T07:44:32.134Z,36.80
2019-04-01T07:47:00.635Z,37.80
2019-04-01T07:49:29.539Z,36.80
2019-04-01T07:51:58.163Z,36.20
2019-04-01T07:54:26.707Z,35.70
2019-04-01T07:56:55.543Z,36.20
2019-04-01T07:59:24.767Z,35.60
2019-04-01T08:01:53.336Z,34.30
2019-04-01T08:04:21.879Z,35.10
2019-04-01T08:06:51.003Z,34.20
2019-04-01T08:09:19.617Z,34.00
2019-04-01T08:11:50.033Z,32.80
2019-04-01T08:14:18.562Z,32.70
2019-04-01T08:16:47.239Z,32.20
2019-04-01T08:19:15.732Z,32.40
2019-04-01T08:21:44.395Z,31.60
2019-04-01T08:24:12.959Z,30.60
2019-04-01T08:26:41.430Z,29.20
2019-04-01T08:29:09.994Z,29.40
2019-04-01T08:31:38.545Z,29.80
2019-04-01T08:34:07.221Z,30.30
2019-04-01T08:36:35.950Z,30.20
2019-04-01T08:39:07.530Z,29.70
2019-04-01T08:41:36.163Z,29.20
2019-04-01T08:44:04.872Z,28.90
2019-04-01T08:46:33.507Z,30.80
2019-04-01T08:49:02.242Z,32.60
2019-04-01T08:51:30.810Z,34.30
2019-04-01T08:53:59.725Z,35.70
2019-04-01T08:56:28.626Z,35.40
2019-04-01T08:58:57.195Z,33.60
2019-04-01T09:01:35.129Z,32.90
2019-04-01T09:03:56.079Z,35.00
2019-04-01T09:06:24.551Z,34.00
2019-04-01T09:08:53.962Z,32.90
2019-04-01T09:11:22.502Z,31.60
2019-04-01T09:13:51.535Z,34.40
2019-04-01T09:16:21.338Z,35.90
2019-04-01T09:18:49.976Z,35.90
2019-04-01T09:21:18.543Z,35.30
2019-04-01T09:23:47.016Z,35.00
2019-04-01T09:26:15.680Z,32.20
2019-04-01T09:28:44.236Z,30.50
2019-04-01T09:31:12.879Z,32.30
2019-04-01T09:33:41.426Z,32.60
2019-04-01T09:36:09.967Z,31.00
2019-04-01T09:38:38.564Z,30.80
2019-04-01T09:41:07.196Z,31.30
2019-04-01T09:43:35.762Z,30.60
2019-04-01T09:46:04.666Z,30.90
2019-04-01T09:48:33.254Z,31.30
2019-04-01T09:51:01.859Z,29.70
2019-04-01T09:53:30.322Z,28.90
2019-04-01T09:55:58.814Z,28.80
2019-04-01T09:58:27.307Z,28.80
2019-04-01T10:00:55.772Z,28.20
2019-04-01T10:03:24.274Z,27.70
2019-04-01T10:05:52.887Z,27.60
2019-04-01T10:08:21.476Z,28.80
2019-04-01T10:10:50.231Z,29.20
2019-04-01T10:13:18.795Z,29.10
2019-04-01T10:15:47.515Z,28.10
2019-04-01T10:18:16.051Z,28.40
2019-04-01T10:20:44.717Z,29.70
2019-04-01T10:23:13.183Z,30.50
2019-04-01T10:25:41.750Z,34.50
2019-04-01T10:28:10.326Z,33.60
2019-04-01T10:30:39.035Z,32.50
2019-04-01T10:33:07.858Z,30.70
2019-04-01T10:35:36.395Z,28.80
2019-04-01T10:38:05.035Z,30.60
2019-04-01T10:40:33.527Z,31.80
2019-04-01T10:43:02.032Z,30.80
2019-04-01T10:45:30.662Z,31.10
2019-04-01T10:47:59.363Z,30.00
2019-04-01T10:50:27.918Z,29.20
2019-04-01T10:52:56.443Z,29.70
2019-04-01T10:55:25.134Z,29.50
2019-04-01T10:57:54.458Z,28.80
2019-04-01T11:00:24.849Z,28.20
2019-04-01T11:02:53.447Z,28.30
2019-04-01T11:05:22.111Z,29.50
2019-04-01T11:07:50.579Z,29.00
2019-04-01T11:10:19.379Z,30.80
2019-04-01T11:12:47.931Z,30.40
2019-04-01T11:15:17.803Z,31.10
2019-04-01T11:17:46.366Z,31.20
2019-04-01T11:20:14.986Z,30.20
2019-04-01T11:22:43.614Z,30.40
2019-04-01T11:25:12.448Z,30.80
2019-04-01T11:27:41.007Z,31.00
2019-04-01T11:30:13.481Z,30.00
2019-04-01T11:32:40.766Z,31.20
2019-04-01T11:35:09.773Z,31.20
2019-04-01T11:37:38.317Z,32.10
2019-04-01T11:40:11.125Z,33.70
2019-04-01T11:42:40.373Z,36.90
2019-04-01T11:45:08.767Z,37.30
2019-04-01T11:47:37.338Z,39.20
2019-04-01T11:50:07.608Z,40.80
2019-04-01T11:52:36.291Z,42.10
2019-04-01T11:55:08.670Z,40.80
2019-04-01T11:57:37.202Z,40.00
2019-04-01T12:00:12.725Z,40.30
2019-04-01T12:02:40.975Z,40.70
2019-04-01T12:05:09.672Z,42.80
2019-04-01T12:07:38.281Z,43.40
2019-04-01T12:10:07.677Z,43.20
2019-04-01T12:12:36.388Z,42.80
2019-04-01T12:15:06.883Z,42.80
2019-04-01T12:17:35.523Z,42.60
2019-04-01T12:20:05.575Z,43.00
2019-04-01T12:22:34.070Z,43.80
2019-04-01T12:25:02.538Z,45.20
2019-04-01T12:27:31.082Z,46.90
2019-04-01T12:29:59.642Z,48.20
2019-04-01T12:32:28.111Z,47.70
2019-04-01T12:34:56.658Z,47.50
2019-04-01T12:37:25.295Z,47.20
2019-04-01T12:39:53.861Z,47.50
2019-04-01T12:42:22.547Z,48.00
2019-04-01T12:44:51.062Z,48.00
2019-04-01T12:47:19.699Z,48.90
2019-04-01T12:49:48.287Z,49.20
2019-04-01T12:52:18.042Z,49.10
2019-04-01T12:54:46.700Z,49.00
2019-04-01T12:57:18.563Z,48.40
2019-04-01T12:59:46.002Z,48.30
2019-04-01T13:02:18.020Z,48.90
2019-04-01T13:04:44.999Z,48.60
2019-04-01T13:07:13.535Z,48.30
2019-04-01T13:09:42.042Z,48.10
2019-04-01T13:12:10.750Z,48.20
2019-04-01T13:14:40.215Z,48.50
2019-04-01T13:17:08.943Z,48.30
2019-04-01T13:19:37.431Z,48.40
2019-04-01T13:22:05.974Z,48.30
2019-04-01T13:24:34.471Z,47.90
2019-04-01T13:27:02.963Z,49.30
2019-04-01T13:29:31.475Z,48.10
2019-04-01T13:32:00.786Z,48.10
2019-04-01T13:34:29.390Z,48.00
2019-04-01T13:36:57.906Z,47.70
2019-04-01T13:39:26.471Z,48.40
2019-04-01T13:41:56.312Z,48.90
2019-04-01T13:44:36.265Z,48.60
2019-04-01T13:46:56.054Z,48.40
2019-04-01T13:49:24.613Z,48.30
2019-04-01T13:51:53.180Z,48.60
2019-04-01T13:54:21.751Z,49.00
2019-04-01T13:56:50.219Z,48.40
2019-04-01T13:59:18.729Z,48.40
2019-04-01T14:01:47.266Z,48.70
2019-04-01T14:04:15.751Z,48.80
2019-04-01T14:06:44.246Z,48.70
2019-04-01T14:09:13.061Z,48.60
2019-04-01T14:11:41.637Z,48.10
2019-04-01T14:14:10.187Z,47.00
2019-04-01T14:16:41.487Z,47.40
2019-04-01T14:19:09.022Z,47.80
2019-04-01T14:21:37.659Z,47.90
2019-04-01T14:24:06.198Z,48.40
2019-04-01T14:26:34.711Z,48.30
2019-04-01T14:29:03.174Z,47.80
2019-04-01T14:31:31.816Z,47.80
2019-04-01T14:34:01.223Z,47.60
2019-04-01T14:36:29.947Z,48.30
2019-04-01T14:38:58.417Z,48.30
2019-04-01T14:41:26.986Z,47.70
2019-04-01T14:43:55.459Z,48.00
2019-04-01T14:46:24.029Z,48.10
2019-04-01T14:48:52.565Z,47.00
2019-04-01T14:51:21.175Z,47.30
2019-04-01T14:53:49.741Z,46.80
2019-04-01T14:56:18.490Z,47.50
2019-04-01T14:58:47.003Z,47.70
2019-04-01T15:01:15.494Z,48.10
2019-04-01T15:03:44.059Z,47.80
2019-04-01T15:06:12.718Z,47.40
2019-04-01T15:08:41.350Z,47.10
2019-04-01T15:11:10.011Z,47.00
2019-04-01T15:13:39.247Z,47.10
2019-04-01T15:16:08.102Z,47.30
2019-04-01T15:18:36.591Z,47.50
2019-04-01T15:21:05.137Z,48.60
2019-04-01T15:23:33.703Z,48.20
2019-04-01T15:26:03.623Z,48.30
2019-04-01T15:28:32.319Z,48.40
2019-04-01T15:31:00.863Z,48.70
2019-04-01T15:33:29.356Z,48.90
2019-04-01T15:35:57.909Z,48.80
2019-04-01T15:38:26.560Z,48.60
2019-04-01T15:40:58.087Z,49.40
2019-04-01T15:43:25.417Z,48.30
2019-04-01T15:45:53.974Z,48.40
2019-04-01T15:48:22.530Z,48.50
2019-04-01T15:50:51.092Z,48.60
2019-04-01T15:53:19.816Z,48.40
2019-04-01T15:55:49.779Z,49.10
2019-04-01T15:58:18.270Z,49.30
2019-04-01T16:00:46.814Z,49.00
2019-04-01T16:03:15.378Z,49.20
2019-04-01T16:05:43.850Z,49.20
2019-04-01T16:08:12.352Z,49.30
2019-04-01T16:10:40.965Z,49.70
2019-04-01T16:13:09.580Z,50.00
2019-04-01T16:15:38.432Z,50.00
2019-04-01T16:18:07.552Z,50.80
2019-04-01T16:20:36.167Z,50.20
2019-04-01T16:23:04.875Z,50.60
2019-04-01T16:25:33.415Z,50.80
2019-04-01T16:28:01.938Z,50.90
2019-04-01T16:30:30.585Z,50.90
2019-04-01T16:32:59.127Z,50.30
2019-04-01T16:35:27.626Z,49.80
2019-04-01T16:37:59.223Z,49.80
2019-04-01T16:40:26.409Z,50.00
2019-04-01T16:42:55.774Z,50.30
2019-04-01T16:45:24.552Z,50.40
2019-04-01T16:47:53.091Z,50.80
2019-04-01T16:50:21.591Z,50.60
2019-04-01T16:52:50.139Z,50.80
2019-04-01T16:55:18.958Z,51.00
2019-04-01T16:57:47.566Z,51.20
2019-04-01T17:00:16.902Z,51.70
2019-04-01T17:02:45.452Z,51.80
2019-04-01T17:05:15.758Z,52.00
2019-04-01T17:07:44.222Z,52.60
2019-04-01T17:10:20.870Z,53.00
2019-04-01T17:12:49.443Z,53.50
2019-04-01T17:15:17.924Z,53.80
2019-04-01T17:17:46.416Z,54.20
2019-04-01T17:20:15.022Z,54.50
2019-04-01T17:22:43.519Z,54.40
2019-04-01T17:25:12.327Z,54.60
2019-04-01T17:27:40.794Z,55.00
2019-04-01T17:30:11.094Z,55.40
2019-04-01T17:32:39.735Z,55.70
2019-04-01T17:35:08.842Z,56.00
2019-04-01T17:37:38.124Z,56.10
2019-04-01T17:40:08.919Z,56.70
2019-04-01T17:42:39.251Z,56.70
2019-04-01T17:45:32.149Z,57.10
2019-04-01T17:48:00.884Z,57.80
2019-04-01T17:50:29.517Z,57.60
2019-04-01T17:52:58.183Z,58.30
2019-04-01T17:55:26.787Z,58.20
2019-04-01T17:57:55.251Z,58.40
2019-04-01T18:00:25.383Z,58.60
2019-04-01T18:02:54.096Z,58.80
2019-04-01T18:05:23.706Z,59.00
2019-04-01T18:07:52.251Z,59.10
2019-04-01T18:10:21.007Z,59.30
2019-04-01T18:12:49.718Z,59.50
2019-04-01T18:15:20.692Z,59.80
2019-04-01T18:17:48.599Z,59.90
2019-04-01T18:20:19.882Z,60.30
2019-04-01T18:22:47.422Z,60.70
2019-04-01T18:25:16.136Z,61.10
2019-04-01T18:27:44.776Z,61.30
2019-04-01T18:30:13.763Z,61.60
2019-04-01T18:32:42.331Z,61.40
2019-04-01T18:35:11.020Z,61.60
2019-04-01T18:37:39.659Z,61.60
2019-04-01T18:40:08.450Z,62.00
2019-04-01T18:42:36.947Z,62.10
2019-04-01T18:45:06.958Z,62.30
2019-04-01T18:47:38.773Z,62.50
2019-04-01T18:50:06.789Z,63.20
2019-04-01T18:52:35.413Z,63.50
2019-04-01T18:55:07.808Z,63.50
2019-04-01T18:57:35.948Z,63.60
2019-04-01T19:00:07.394Z,63.80
2019-04-01T19:02:35.935Z,63.80
2019-04-01T19:05:05.066Z,63.70
2019-04-01T19:07:35.486Z,64.00
2019-04-01T19:10:06.415Z,64.10
2019-04-01T19:12:36.033Z,64.40
2019-04-01T19:15:07.212Z,64.70
2019-04-01T19:17:35.753Z,64.90
2019-04-01T19:20:06.788Z,65.20
2019-04-01T19:22:35.327Z,65.50
2019-04-01T19:25:05.807Z,65.80
2019-04-01T19:27:34.303Z,66.20
2019-04-01T19:30:03.350Z,66.50
2019-04-01T19:32:31.918Z,66.60
2019-04-01T19:35:00.636Z,66.80
2019-04-01T19:37:29.239Z,67.20
2019-04-01T19:39:57.764Z,67.40
2019-04-01T19:42:26.239Z,67.70
2019-04-01T19:44:54.802Z,68.00
2019-04-01T19:47:23.505Z,67.70
2019-04-01T19:49:52.083Z,67.90
2019-04-01T19:52:21.574Z,68.00
2019-04-01T19:54:50.048Z,68.30
2019-04-01T19:57:18.515Z,68.50
2019-04-01T19:59:47.014Z,68.70
2019-04-01T20:02:15.759Z,68.80
2019-04-01T20:04:44.394Z,69.10
2019-04-01T20:07:13.104Z,69.30
2019-04-01T20:09:41.664Z,69.30
2019-04-01T20:12:11.184Z,69.50
2019-04-01T20:14:40.458Z,69.80
2019-04-01T20:17:11.116Z,69.80
2019-04-01T20:19:39.746Z,70.10
2019-04-01T20:22:08.235Z,70.20
2019-04-01T20:24:36.698Z,70.60
2019-04-01T20:27:05.263Z,70.60
2019-04-01T20:29:33.825Z,70.80
2019-04-01T20:32:02.463Z,70.50
2019-04-01T20:34:32.334Z,70.70
2019-04-01T20:37:00.922Z,70.50
2019-04-01T20:39:29.423Z,70.60
2019-04-01T20:41:58.599Z,70.50
2019-04-01T20:44:27.299Z,70.70
2019-04-01T20:46:55.769Z,71.10
2019-04-01T20:49:24.334Z,71.10
2019-04-01T20:51:54.050Z,71.30
2019-04-01T20:54:22.795Z,71.40
2019-04-01T20:56:52.155Z,71.80
2019-04-01T20:59:20.622Z,72.40
2019-04-01T21:01:49.114Z,72.50
2019-04-01T21:04:17.579Z,72.50
2019-04-01T21:06:46.071Z,72.70
2019-04-01T21:09:16.158Z,72.60
2019-04-01T21:11:44.879Z,73.00
2019-04-01T21:14:13.508Z,73.10
2019-04-01T21:16:42.051Z,74.10
2019-04-01T21:19:10.768Z,74.80
2019-04-01T21:21:39.757Z,75.40
2019-04-01T21:24:08.442Z,76.10
2019-04-01T21:26:36.982Z,76.60
2019-04-01T21:29:05.619Z,76.90
2019-04-01T21:31:34.163Z,76.60
2019-04-01T21:34:02.650Z,76.90
2019-04-01T21:36:31.126Z,76.90
2019-04-01T21:39:01.123Z,77.40
2019-04-01T21:41:29.760Z,77.50
2019-04-01T21:43:58.299Z,76.50
2019-04-01T21:46:26.787Z,76.60
2019-04-01T21:48:55.255Z,76.50
2019-04-01T21:51:23.743Z,76.50
2019-04-01T21:53:52.207Z,76.30
2019-04-01T21:56:20.778Z,76.10
2019-04-01T21:58:49.536Z,75.90
2019-04-01T22:01:18.256Z,76.10
2019-04-01T22:03:46.863Z,76.30
2019-04-01T22:06:15.367Z,76.70
2019-04-01T22:08:43.991Z,76.90
2019-04-01T22:11:12.455Z,77.40
2019-04-01T22:13:40.959Z,77.40
2019-04-01T22:16:09.430Z,78.10
2019-04-01T22:18:37.906Z,78.20
2019-04-01T22:21:06.476Z,78.60
2019-04-01T22:23:35.089Z,78.30
2019-04-01T22:26:03.694Z,78.00
2019-04-01T22:28:32.166Z,77.50
2019-04-01T22:31:00.722Z,77.10
2019-04-01T22:33:29.219Z,77.00
2019-04-01T22:35:57.721Z,77.20
2019-04-01T22:38:26.274Z,76.30
2019-04-01T22:40:54.838Z,76.20
2019-04-01T22:43:23.342Z,76.20
2019-04-01T22:45:52.859Z,76.10
2019-04-01T22:48:21.354Z,76.20
2019-04-01T22:50:49.855Z,76.30
2019-04-01T22:53:18.390Z,76.50
2019-04-01T22:55:47.060Z,76.70
2019-04-01T22:58:15.766Z,76.70
2019-04-01T23:00:44.336Z,76.50
2019-04-01T23:03:12.807Z,76.60
2019-04-01T23:05:41.646Z,76.50
2019-04-01T23:08:10.138Z,76.60
2019-04-01T23:10:38.614Z,76.70
2019-04-01T23:13:07.107Z,76.50
2019-04-01T23:15:35.650Z,76.80
2019-04-01T23:18:04.211Z,76.90
2019-04-01T23:20:33.476Z,76.90
2019-04-01T23:23:02.560Z,76.70
2019-04-01T23:25:31.102Z,76.90
2019-04-01T23:27:59.667Z,76.90
2019-04-01T23:30:28.130Z,76.80
2019-04-01T23:32:56.630Z,76.70
2019-04-01T23:35:25.202Z,76.80
2019-04-01T23:37:53.668Z,76.60
2019-04-01T23:40:22.250Z,76.70
2019-04-01T23:42:50.718Z,76.70
2019-04-01T23:45:20.960Z,76.70
2019-04-01T23:47:49.635Z,76.60
2019-04-01T23:50:18.274Z,76.80
2019-04-01T23:52:46.815Z,76.80
2019-04-01T23:55:15.455Z,76.90
2019-04-01T23:57:44.018Z,77.00
